Time;durP1;ratioP1;P1;durP2;ratioP2;P2;SDS_P1;SDS_P2;PMS_P1;PMS_P2;Temp;Humidity;BMP_temperature;BMP_pressure;BME280_temperature;BME280_humidity;BME280_pressure;Samples;Min_cycle;Max_cycle;Signal;HPM_P1;HPM_P2
2022/11/19 00:00:51;;;;;;;;;;;;;;;19.86;45.06;95742.91;5132588;27;19911;-32
2022/11/19 00:03:17;;;;;;;;;;;;;;;19.82;45.11;95745.16;5132637;27;20278;-32
2022/11/19 00:05:44;;;;;;;;;;;;;;;19.82;45.07;95747.16;5132778;27;19911;-33
2022/11/19 00:08:10;;;;;;;;;;;;;;;19.77;45.18;95736.94;5132671;27;19919;-31
2022/11/19 00:10:36;;;;;;;;;;;;;;;19.75;45.03;95725.69;5132319;28;19960;-34
2022/11/19 00:13:01;;;;;;;;;;;;;;;19.80;45.00;95719.41;5132592;28;19991;-31
2022/11/19 00:15:27;;;;;;;;;;;;;;;19.83;45.17;95726.66;5132640;28;20260;-32
2022/11/19 00:17:52;;;;;;;;;;;;;;;19.82;45.03;95725.16;5132627;28;19918;-32
2022/11/19 00:20:17;;;;;;;;;;;;;;;19.77;45.16;95725.94;5136692;27;19962;-33
2022/11/19 00:22:43;;;;;;;;;;;;;;;19.79;45.15;95737.91;5153087;27;19906;-31
2022/11/19 00:25:09;;;;;;;;;;;;;;;19.78;45.11;95732.94;5155469;27;19907;-31
2022/11/19 00:27:34;;;;;;;;;;;;;;;19.81;45.10;95740.91;5155489;27;20403;-31
2022/11/19 00:29:59;;;;;;;;;;;;;;;19.78;45.09;95744.66;5155384;27;19910;-31
2022/11/19 00:32:25;;;;;;;;;;;;;;;19.79;44.95;95745.41;5155298;27;20357;-34
2022/11/19 00:34:50;;;;;;;;;;;;;;;19.78;45.03;95749.44;5155460;27;19914;-33
2022/11/19 00:37:15;;;;;;;;;;;;;;;19.81;45.13;95745.66;5155323;27;19956;-31
2022/11/19 00:39:41;;;;;;;;;;;;;;;19.77;45.04;95747.94;5155230;27;19975;-31
2022/11/19 00:42:06;;;;;;;;;;;;;;;19.75;45.10;95744.94;5136609;27;19907;-31
2022/11/19 00:44:31;;;;;;;;;;;;;;;19.78;44.99;95749.44;5155384;27;19961;-31
2022/11/19 00:46:56;;;;;;;;;;;;;;;19.75;45.05;95737.44;5155009;27;19914;-31
2022/11/19 00:49:22;;;;;;;;;;;;;;;19.79;45.18;95739.91;5155118;27;19914;-33
2022/11/19 00:51:47;;;;;;;;;;;;;;;19.79;44.75;95740.66;5155080;27;19914;-31
2022/11/19 00:54:12;;;;;;;;;;;;;;;19.67;44.92;95730.94;5155250;27;20471;-31
2022/11/19 00:56:38;;;;;;;;;;;;;;;19.65;44.84;95722.47;5155037;27;19918;-32
2022/11/19 00:59:03;;;;;;;;;;;;;;;19.72;45.10;95719.94;5158346;27;20019;-31
2022/11/19 01:01:28;;;;;;;;;;;;;;;19.69;45.15;95722.94;5159109;27;19907;-32
2022/11/19 01:03:53;;;;;;;;;;;;;;;19.72;44.93;95725.44;5158943;27;19942;-31
2022/11/19 01:06:20;;;;;;;;;;;;;;;19.71;44.83;95720.44;5158927;27;20286;-31
2022/11/19 01:08:46;;;;;;;;;;;;;;;19.73;45.00;95717.94;5159136;27;19907;-31
2022/11/19 01:11:13;;;;;;;;;;;;;;;19.73;44.96;95724.19;5159045;27;20282;-31
2022/11/19 01:13:38;;;;;;;;;;;;;;;19.71;44.96;95720.44;5158643;27;20267;-31
2022/11/19 01:16:06;;;;;;;;;;;;;;;19.67;44.98;95715.19;5158780;27;19922;-31
2022/11/19 01:18:31;;;;;;;;;;;;;;;19.69;44.83;95725.69;5158658;27;19975;-31
2022/11/19 01:20:57;;;;;;;;;;;;;;;19.67;45.11;95726.19;5158580;27;20362;-31
2022/11/19 01:23:22;;;;;;;;;;;;;;;19.66;45.08;95738.44;5158531;27;20052;-31
2022/11/19 01:25:47;;;;;;;;;;;;;;;19.68;44.97;95741.44;5158739;27;19954;-32
2022/11/19 01:28:13;;;;;;;;;;;;;;;19.65;45.17;95731.47;5158432;27;19914;-32
2022/11/19 01:30:39;;;;;;;;;;;;;;;19.62;45.13;95732.47;5158551;27;20283;-32
2022/11/19 01:33:04;;;;;;;;;;;;;;;19.69;45.05;95740.19;5158388;27;19910;-31
2022/11/19 01:35:30;;;;;;;;;;;;;;;19.69;45.12;95740.19;5158414;27;19922;-31
2022/11/19 01:37:55;;;;;;;;;;;;;;;19.61;45.25;95728.22;5158544;27;19914;-31
2022/11/19 01:40:20;;;;;;;;;;;;;;;19.66;45.01;95732.94;5158313;27;20426;-31
2022/11/19 01:42:49;;;;;;;;;;;;;;;19.65;45.03;95725.22;5157250;27;19907;-31
2022/11/19 01:45:29;;;;;;;;;;;;;;;19.63;45.06;95713.97;5156438;27;19952;-32
2022/11/19 01:47:57;;;;;;;;;;;;;;;19.64;45.11;95705.22;5158087;27;19914;-31
2022/11/19 01:50:23;;;;;;;;;;;;;;;19.64;45.19;95704.47;5158119;27;19906;-33
2022/11/19 01:52:48;;;;;;;;;;;;;;;19.61;44.99;95697.22;5158547;27;20346;-31
2022/11/19 01:55:14;;;;;;;;;;;;;;;19.60;45.23;95688.19;5157856;27;19907;-31
2022/11/19 01:57:40;;;;;;;;;;;;;;;19.60;45.38;95690.94;5158224;27;20432;-31
2022/11/19 02:00:06;;;;;;;;;;;;;;;19.65;45.31;95695.72;5157872;27;19994;-31
2022/11/19 02:02:31;;;;;;;;;;;;;;;19.55;45.49;95697.19;5157844;27;19914;-31
2022/11/19 02:04:57;;;;;;;;;;;;;;;19.58;45.37;95684.44;5157718;27;20323;-31
2022/11/19 02:07:27;;;;;;;;;;;;;;;19.60;45.45;95687.44;5157782;27;19907;-32
2022/11/19 02:09:54;;;;;;;;;;;;;;;19.65;45.42;95690.19;5138519;27;19955;-32
2022/11/19 02:12:34;;;;;;;;;;;;;;;19.59;45.25;95686.69;5157682;27;20043;-31
2022/11/19 02:15:00;;;;;;;;;;;;;;;19.63;45.34;95676.19;5157572;27;20059;-33
2022/11/19 02:17:25;;;;;;;;;;;;;;;19.59;45.54;95670.19;5157837;27;20002;-32
2022/11/19 02:19:56;;;;;;;;;;;;;;;19.58;45.38;95671.44;5157943;27;19997;-31
2022/11/19 02:22:48;;;;;;;;;;;;;;;19.56;45.59;95671.19;5156010;27;19911;-31
2022/11/19 02:25:16;;;;;;;;;;;;;;;19.62;45.52;95671.19;5157555;27;19915;-31
2022/11/19 02:27:54;;;;;;;;;;;;;;;19.52;45.56;95678.97;5157237;27;19907;-32
2022/11/19 02:30:20;;;;;;;;;;;;;;;19.56;45.69;95687.69;5157365;27;19928;-31
2022/11/19 02:33:07;;;;;;;;;;;;;;;19.55;45.65;95679.94;5155613;27;19907;-32
2022/11/19 02:36:01;;;;;;;;;;;;;;;19.52;45.58;95692.72;5157467;27;20277;-31
2022/11/19 02:38:32;;;;;;;;;;;;;;;19.57;45.51;95700.22;5138990;27;20001;-31
2022/11/19 02:41:32;;;;;;;;;;;;;;;19.48;45.86;95694.94;5157068;27;19913;-31
2022/11/19 02:44:57;;;;;;;;;;;;;;;19.50;45.82;95700.72;5156328;27;20303;-31
2022/11/19 02:46:37;;;;;;;;;;;;;;;19.54;45.74;95692.94;5156774;27;19907;-31
2022/11/19 02:49:03;;;;;;;;;;;;;;;19.58;45.67;95690.69;5156915;27;19913;-32
2022/11/19 02:51:29;;;;;;;;;;;;;;;19.55;45.76;95696.44;5156745;27;19940;-33
2022/11/19 02:53:56;;;;;;;;;;;;;;;19.51;45.83;95682.97;5156986;27;19907;-31
2022/11/19 02:56:47;;;;;;;;;;;;;;;19.52;45.60;95694.72;5138218;27;19941;-32
2022/11/19 03:04:43;;;;;;;;;;;;;;;19.48;45.90;95677.69;5156581;27;19958;-31
2022/11/19 03:07:12;;;;;;;;;;;;;;;19.50;45.86;95681.47;5156659;27;20274;-31
2022/11/19 03:10:07;;;;;;;;;;;;;;;19.52;46.06;95686.47;5156748;27;19907;-31
2022/11/19 03:12:41;;;;;;;;;;;;;;;19.48;45.96;95689.44;5138183;27;19907;-31
2022/11/19 03:18:09;;;;;;;;;;;;;;;19.42;46.25;95690.69;5156379;27;19932;-31
2022/11/19 03:20:40;;;;;;;;;;;;;;;19.44;46.31;95696.44;5155721;27;19906;-31
2022/11/19 03:23:17;;;;;;;;;;;;;;;19.44;46.11;95691.69;5155764;27;19915;-31
2022/11/19 03:26:02;;;;;;;;;;;;;;;19.46;46.22;95691.19;5156180;27;19907;-31
2022/11/19 03:28:31;;;;;;;;;;;;;;;19.41;46.26;95687.19;5155611;27;20362;-32
2022/11/19 03:30:59;;;;;;;;;;;;;;;19.47;46.11;95685.19;5156093;27;19942;-31
2022/11/19 03:33:31;;;;;;;;;;;;;;;19.41;46.51;95687.19;5155812;27;19938;-31
2022/11/19 03:35:59;;;;;;;;;;;;;;;19.42;46.48;95687.94;5155961;27;20011;-31
2022/11/19 03:38:28;;;;;;;;;;;;;;;19.39;46.41;95689.72;5156096;27;20243;-31
2022/11/19 03:40:54;;;;;;;;;;;;;;;19.42;46.64;95688.69;5155871;27;20319;-31
2022/11/19 03:43:23;;;;;;;;;;;;;;;19.40;46.41;95691.22;5134176;27;19989;-32
2022/11/19 03:45:50;;;;;;;;;;;;;;;19.36;46.56;95690.72;5155900;27;20391;-31
2022/11/19 03:48:17;;;;;;;;;;;;;;;19.37;46.72;95687.47;5155677;27;20309;-31
2022/11/19 03:50:45;;;;;;;;;;;;;;;19.46;46.59;95683.69;5155946;27;20376;-31
2022/11/19 03:53:10;;;;;;;;;;;;;;;19.41;46.63;95684.44;5137154;27;19911;-31
2022/11/19 03:55:43;;;;;;;;;;;;;;;19.36;46.67;95682.47;5155658;27;19911;-31
2022/11/19 03:58:09;;;;;;;;;;;;;;;19.44;46.74;95691.69;5156109;27;19907;-32
2022/11/19 04:00:35;;;;;;;;;;;;;;;19.40;46.81;95693.22;5155580;27;19907;-32
2022/11/19 04:03:00;;;;;;;;;;;;;;;19.35;46.92;95681.72;5155852;27;19914;-32
2022/11/19 04:05:25;;;;;;;;;;;;;;;19.39;46.85;95678.72;5155497;27;19914;-32
2022/11/19 04:07:51;;;;;;;;;;;;;;;19.37;46.96;95665.47;5137000;27;20017;-31
2022/11/19 04:10:16;;;;;;;;;;;;;;;19.37;47.03;95653.72;5155556;27;19907;-31
2022/11/19 04:12:41;;;;;;;;;;;;;;;19.31;47.14;95659.22;5155629;27;20377;-31
2022/11/19 04:15:09;;;;;;;;;;;;;;;19.33;47.05;95669.72;5155241;27;19911;-31
2022/11/19 04:17:34;;;;;;;;;;;;;;;19.33;47.04;95670.47;5155447;27;19907;-31
2022/11/19 04:19:59;;;;;;;;;;;;;;;19.35;46.99;95670.72;5155429;27;19910;-31
2022/11/19 04:22:24;;;;;;;;;;;;;;;19.30;46.98;95668.72;5155506;27;19907;-31
2022/11/19 04:24:50;;;;;;;;;;;;;;;19.30;47.13;95671.47;5154617;27;20001;-31
2022/11/19 04:27:15;;;;;;;;;;;;;;;19.30;47.12;95676.97;5155492;27;19914;-31
2022/11/19 04:29:40;;;;;;;;;;;;;;;19.37;46.84;95676.47;5155444;27;20357;-31
2022/11/19 04:32:06;;;;;;;;;;;;;;;19.34;47.11;95677.47;5155569;27;19910;-32
2022/11/19 04:34:31;;;;;;;;;;;;;;;19.35;46.98;95680.97;5159519;27;19907;-31
2022/11/19 04:36:56;;;;;;;;;;;;;;;19.32;47.06;95681.97;5159355;27;20396;-31
2022/11/19 04:39:22;;;;;;;;;;;;;;;19.23;47.30;95672.00;5159572;27;20418;-31
2022/11/19 04:41:47;;;;;;;;;;;;;;;19.25;47.20;95677.00;5159130;27;20014;-33
2022/11/19 04:44:12;;;;;;;;;;;;;;;19.30;47.25;95681.72;5159365;27;20001;-31
2022/11/19 04:46:37;;;;;;;;;;;;;;;19.33;47.05;95680.72;5159081;27;19906;-31
2022/11/19 04:49:03;;;;;;;;;;;;;;;19.28;47.21;95673.25;5159488;27;19967;-33
2022/11/19 04:51:28;;;;;;;;;;;;;;;19.31;47.24;95672.97;5159434;27;20295;-33
2022/11/19 04:53:54;;;;;;;;;;;;;;;19.31;47.20;95667.47;5159256;27;19914;-31
2022/11/19 04:56:19;;;;;;;;;;;;;;;19.27;47.35;95669.00;5159064;27;20388;-31
2022/11/19 04:58:44;;;;;;;;;;;;;;;19.25;47.30;95669.50;5158922;27;19914;-31
2022/11/19 05:01:10;;;;;;;;;;;;;;;19.24;47.46;95662.50;5159162;27;19918;-31
2022/11/19 05:03:36;;;;;;;;;;;;;;;19.29;47.40;95664.47;5159022;27;20265;-31
2022/11/19 05:06:01;;;;;;;;;;;;;;;19.23;47.53;95665.75;5158976;27;19907;-32
2022/11/19 05:08:29;;;;;;;;;;;;;;;19.28;47.36;95662.25;5158911;27;20348;-32
2022/11/19 05:10:54;;;;;;;;;;;;;;;19.28;47.50;95667.75;5158907;27;19907;-33
2022/11/19 05:13:20;;;;;;;;;;;;;;;19.29;47.47;95658.22;5158702;27;19918;-33
2022/11/19 05:15:45;;;;;;;;;;;;;;;19.32;47.47;95657.97;5158821;27;20346;-32
2022/11/19 05:18:11;;;;;;;;;;;;;;;19.27;47.56;95666.25;5158739;27;19911;-33
2022/11/19 05:20:36;;;;;;;;;;;;;;;19.21;47.83;95663.50;5158865;27;19960;-32
2022/11/19 05:23:02;;;;;;;;;;;;;;;19.24;47.78;95656.25;5158678;27;20289;-31
2022/11/19 05:25:27;;;;;;;;;;;;;;;19.26;47.67;95649.00;5158629;27;20262;-31
2022/11/19 05:27:52;;;;;;;;;;;;;;;19.25;47.72;95653.00;5158801;27;19907;-31
2022/11/19 05:30:18;;;;;;;;;;;;;;;19.24;47.67;95659.75;5158714;27;19914;-31
2022/11/19 05:32:43;;;;;;;;;;;;;;;19.27;47.90;95661.50;5158323;27;19931;-31
2022/11/19 05:35:08;;;;;;;;;;;;;;;19.22;47.88;95669.75;5158308;27;19907;-31
2022/11/19 05:37:34;;;;;;;;;;;;;;;19.28;47.74;95663.00;5158371;27;19929;-32
2022/11/19 05:39:59;;;;;;;;;;;;;;;19.23;47.96;95671.25;5158595;27;20255;-33
2022/11/19 05:42:24;;;;;;;;;;;;;;;19.18;48.10;95671.97;5157622;27;19921;-31
2022/11/19 05:44:51;;;;;;;;;;;;;;;19.16;48.27;95672.50;5154693;27;19942;-31
2022/11/19 05:47:25;;;;;;;;;;;;;;;19.25;47.94;95663.25;5158160;27;20376;-32
2022/11/19 05:49:52;;;;;;;;;;;;;;;19.19;48.17;95665.25;5158009;27;19911;-32
2022/11/19 05:52:17;;;;;;;;;;;;;;;19.17;48.40;95662.97;5158174;27;20358;-31
2022/11/19 05:54:43;;;;;;;;;;;;;;;19.21;48.17;95657.25;5158102;27;19914;-31
2022/11/19 05:57:08;;;;;;;;;;;;;;;19.18;48.33;95663.72;5157847;27;19918;-31
2022/11/19 05:59:34;;;;;;;;;;;;;;;19.20;48.18;95659.25;5157816;27;19911;-33
2022/11/19 06:01:59;;;;;;;;;;;;;;;19.22;48.40;95658.75;5157962;27;20350;-32
2022/11/19 06:04:24;;;;;;;;;;;;;;;19.23;48.29;95652.75;5157908;27;19914;-33
2022/11/19 06:06:50;;;;;;;;;;;;;;;19.12;48.59;95654.75;5157693;27;19907;-32
2022/11/19 06:09:15;;;;;;;;;;;;;;;19.13;48.73;95657.00;5157825;27;19907;-33
2022/11/19 06:11:46;;;;;;;;;;;;;;;19.29;48.39;95663.72;5157584;27;20345;-31
2022/11/19 06:14:12;;;;;;;;;;;;;;;19.23;48.42;95655.50;5157701;27;19918;-32
2022/11/19 06:16:37;;;;;;;;;;;;;;;19.20;48.67;95658.50;5157495;27;20298;-31
2022/11/19 06:19:03;;;;;;;;;;;;;;;19.21;48.72;95652.50;5157589;27;19914;-31
2022/11/19 06:21:28;;;;;;;;;;;;;;;19.22;48.70;95662.25;5157419;27;19914;-33
2022/11/19 06:23:53;;;;;;;;;;;;;;;19.18;48.94;95652.75;5156800;27;19922;-31
2022/11/19 06:26:22;;;;;;;;;;;;;;;19.22;48.90;95664.25;5157315;27;19914;-33
2022/11/19 06:28:47;;;;;;;;;;;;;;;19.20;48.96;95664.75;5157657;27;19914;-31
2022/11/19 06:31:13;;;;;;;;;;;;;;;19.13;49.07;95664.50;5157426;27;19907;-31
2022/11/19 06:33:39;;;;;;;;;;;;;;;19.15;49.12;95675.75;5157191;27;20001;-32
2022/11/19 06:36:05;;;;;;;;;;;;;;;19.21;48.91;95673.72;5157158;27;20011;-31
2022/11/19 06:38:30;;;;;;;;;;;;;;;19.18;49.16;95680.22;5157443;27;19945;-31
2022/11/19 06:40:55;;;;;;;;;;;;;;;19.19;49.25;95678.97;5157127;27;19907;-31
2022/11/19 06:43:20;;;;;;;;;;;;;;;19.18;49.30;95672.72;5157022;27;19911;-31
2022/11/19 06:45:46;;;;;;;;;;;;;;;19.14;49.40;95683.25;5156998;27;20378;-31
2022/11/19 06:48:11;;;;;;;;;;;;;;;19.17;49.20;95686.97;5156854;27;19942;-31
2022/11/19 06:50:37;;;;;;;;;;;;;;;19.26;49.08;95686.75;5156954;27;19907;-31
2022/11/19 06:53:02;;;;;;;;;;;;;;;19.22;49.28;95691.72;5156883;27;19907;-32
2022/11/19 06:55:30;;;;;;;;;;;;;;;19.18;49.40;95682.97;5156758;27;19911;-32
2022/11/19 06:57:56;;;;;;;;;;;;;;;19.18;49.53;95686.47;5156655;27;19958;-31
2022/11/19 07:00:21;;;;;;;;;;;;;;;19.14;49.49;95699.00;5156914;27;19911;-31
2022/11/19 07:02:47;;;;;;;;;;;;;;;19.14;49.85;95683.25;5156866;27;19907;-31
2022/11/19 07:05:12;;;;;;;;;;;;;;;19.16;49.49;95689.00;5156634;27;19914;-31
2022/11/19 07:07:37;;;;;;;;;;;;;;;19.19;49.55;95687.22;5144486;27;19921;-31
2022/11/19 07:10:03;;;;;;;;;;;;;;;19.13;49.82;95687.25;5128656;27;20009;-31
2022/11/19 07:12:28;;;;;;;;;;;;;;;19.19;49.74;95689.97;5128706;27;19994;-33
2022/11/19 07:14:54;;;;;;;;;;;;;;;19.20;49.61;95692.22;5112751;27;19915;-31
2022/11/19 07:17:19;;;;;;;;;;;;;;;19.13;49.91;95695.50;5129201;27;20035;-29
2022/11/19 07:19:44;;;;;;;;;;;;;;;19.19;49.91;95700.97;5129239;27;20482;-29
2022/11/19 07:22:10;;;;;;;;;;;;;;;19.22;49.74;95699.97;5129167;27;19971;-29
2022/11/19 07:24:35;;;;;;;;;;;;;;;19.21;49.81;95698.47;5109884;27;20383;-30
2022/11/19 07:27:00;;;;;;;;;;;;;;;19.13;50.16;95698.25;5132227;27;19915;-29
2022/11/19 07:29:25;;;;;;;;;;;;;;;19.13;50.25;95700.25;5156328;27;19950;-29
2022/11/19 07:31:52;;;;;;;;;;;;;;;19.18;50.11;95708.47;5155963;27;19907;-29
2022/11/19 07:34:18;;;;;;;;;;;;;;;19.12;50.36;95706.97;5156160;27;19914;-32
2022/11/19 07:36:44;;;;;;;;;;;;;;;19.12;50.44;95710.47;5155865;27;19911;-30
2022/11/19 07:39:09;;;;;;;;;;;;;;;19.17;50.21;95708.97;5156018;27;19907;-29
2022/11/19 07:44:18;;;;;;;;;;;;;;;19.16;50.40;95694.50;5156236;27;19914;-31
2022/11/19 07:46:44;;;;;;;;;;;;;;;19.15;50.32;95697.75;5156024;27;19958;-29
2022/11/19 07:49:09;;;;;;;;;;;;;;;19.14;50.50;95697.00;5155957;27;20263;-29
2022/11/19 07:51:34;;;;;;;;;;;;;;;19.05;50.84;95699.22;5151746;27;19907;-30
2022/11/19 07:54:00;;;;;;;;;;;;;;;19.17;50.66;95700.72;5148750;27;19915;-31
2022/11/19 07:56:25;;;;;;;;;;;;;;;19.12;50.81;95701.47;5146502;27;19915;-30
2022/11/19 07:58:50;;;;;;;;;;;;;;;19.13;50.69;95701.00;5153447;27;19911;-29
2022/11/19 08:01:20;;;;;;;;;;;;;;;19.12;50.64;95704.22;5132876;27;19915;-29
2022/11/19 08:03:46;;;;;;;;;;;;;;;19.07;50.85;95697.47;5132655;27;19907;-30
2022/11/19 08:06:12;;;;;;;;;;;;;;;19.08;50.82;95700.97;5132609;27;20290;-29
2022/11/19 08:08:38;;;;;;;;;;;;;;;19.22;50.54;95703.47;5132074;27;20367;-30
2022/11/19 08:11:04;;;;;;;;;;;;;;;19.13;50.72;95690.00;5132845;27;19907;-29
2022/11/19 08:13:30;;;;;;;;;;;;;;;19.12;50.86;95687.75;5153377;27;19907;-29
2022/11/19 08:15:59;;;;;;;;;;;;;;;19.09;51.09;95681.25;5153217;27;20396;-30
2022/11/19 08:18:24;;;;;;;;;;;;;;;19.17;50.85;95686.97;5152987;27;20002;-29
2022/11/19 08:20:50;;;;;;;;;;;;;;;19.17;51.05;95682.22;5153257;27;20002;-30
2022/11/19 08:23:15;;;;;;;;;;;;;;;19.14;51.14;95685.25;5150483;27;19926;-30
2022/11/19 08:25:43;;;;;;;;;;;;;;;19.10;51.43;95673.75;5153330;27;19917;-30
2022/11/19 08:28:08;;;;;;;;;;;;;;;19.10;51.25;95674.50;5153153;27;19950;-29
2022/11/19 08:30:34;;;;;;;;;;;;;;;19.15;51.30;95670.25;5153066;27;19949;-29
2022/11/19 08:32:59;;;;;;;;;;;;;;;19.22;51.02;95664.25;5153192;27;20298;-29
2022/11/19 08:35:24;;;;;;;;;;;;;;;19.21;51.24;95668.25;5153092;27;19907;-29
2022/11/19 08:37:50;;;;;;;;;;;;;;;19.14;51.39;95666.00;5153143;27;19959;-31
2022/11/19 08:40:15;;;;;;;;;;;;;;;19.12;51.37;95669.25;5153085;27;19956;-29
2022/11/19 08:42:59;;;;;;;;;;;;;;;19.12;51.53;95655.50;5152911;27;19911;-30
2022/11/19 08:45:27;;;;;;;;;;;;;;;19.17;51.43;95656.75;5153071;27;19911;-29
2022/11/19 08:47:53;;;;;;;;;;;;;;;19.15;51.58;95653.75;5152821;27;19911;-30
2022/11/19 08:50:19;;;;;;;;;;;;;;;19.15;51.47;95659.25;5152796;27;19911;-29
2022/11/19 08:52:45;;;;;;;;;;;;;;;19.06;51.54;95663.00;5152648;27;19911;-31
2022/11/19 08:55:10;;;;;;;;;;;;;;;19.14;51.41;95652.25;5152633;27;19933;-29
2022/11/19 08:57:35;;;;;;;;;;;;;;;19.13;51.50;95656.25;5152712;27;19911;-30
2022/11/19 09:00:00;;;;;;;;;;;;;;;19.14;51.44;95657.75;5153008;27;20333;-29
2022/11/19 09:02:26;;;;;;;;;;;;;;;19.15;51.50;95660.00;5152887;27;19911;-30
2022/11/19 09:04:51;;;;;;;;;;;;;;;19.12;51.71;95660.25;5152784;27;19959;-29
2022/11/19 09:07:16;;;;;;;;;;;;;;;19.22;51.43;95648.50;5153190;27;19907;-30
2022/11/19 09:09:42;;;;;;;;;;;;;;;19.15;51.61;95645.53;5152921;27;19911;-31
2022/11/19 09:12:08;;;;;;;;;;;;;;;19.13;51.74;95650.75;5152984;27;19919;-30
2022/11/19 09:14:33;;;;;;;;;;;;;;;19.18;51.61;95647.25;5152892;27;19911;-29
2022/11/19 09:16:59;;;;;;;;;;;;;;;19.10;51.85;95649.75;5152509;27;19957;-29
2022/11/19 09:19:24;;;;;;;;;;;;;;;19.05;51.97;95649.75;5153507;27;19907;-31
2022/11/19 09:21:49;;;;;;;;;;;;;;;19.14;51.86;95649.50;5156819;27;19979;-29
2022/11/19 09:24:15;;;;;;;;;;;;;;;19.12;51.93;95644.53;5154614;27;19926;-29
2022/11/19 09:26:40;;;;;;;;;;;;;;;19.12;52.00;95641.03;5156651;27;20454;-29
2022/11/19 09:29:05;;;;;;;;;;;;;;;19.14;51.99;95633.78;5156238;27;20457;-29
2022/11/19 09:31:30;;;;;;;;;;;;;;;19.17;51.80;95626.50;5156368;27;20001;-30
2022/11/19 09:33:56;;;;;;;;;;;;;;;19.08;52.09;95626.78;5156554;27;19911;-29
2022/11/19 09:36:21;;;;;;;;;;;;;;;19.07;52.03;95617.03;5156333;27;20006;-29
2022/11/19 09:38:46;;;;;;;;;;;;;;;19.09;52.29;95623.53;5156105;27;19911;-31
2022/11/19 09:41:12;;;;;;;;;;;;;;;19.17;52.09;95610.75;5154186;27;19954;-31
2022/11/19 09:43:47;;;;;;;;;;;;;;;19.19;51.90;95613.75;5137142;27;19907;-29
2022/11/19 09:46:30;;;;;;;;;;;;;;;19.13;52.26;95626.78;5135500;27;19918;-33
2022/11/19 09:49:00;;;;;;;;;;;;;;;18.16;55.34;95637.44;5147035;27;19946;-31
2022/11/19 09:51:28;;;;;;;;;;;;;;;18.40;55.09;95628.00;5156016;27;19911;-29
2022/11/19 09:53:54;;;;;;;;;;;;;;;18.64;54.25;95623.56;5157988;27;19907;-28
2022/11/19 09:56:28;;;;;;;;;;;;;;;18.90;53.41;95615.06;5157377;27;20396;-28
2022/11/19 09:58:54;;;;;;;;;;;;;;;19.09;52.84;95614.53;5157145;27;20263;-28
2022/11/19 10:01:20;;;;;;;;;;;;;;;19.11;52.63;95606.53;5157301;27;19907;-28
2022/11/19 10:03:50;;;;;;;;;;;;;;;19.17;52.30;95591.53;5157804;27;19935;-28
2022/11/19 10:06:15;;;;;;;;;;;;;;;19.16;52.33;95590.06;5157533;27;19911;-28
2022/11/19 10:08:48;;;;;;;;;;;;;;;19.15;52.41;95582.31;5157120;27;20266;-28
2022/11/19 10:11:16;;;;;;;;;;;;;;;19.13;52.48;95587.56;5157765;27;19914;-30
2022/11/19 10:14:01;;;;;;;;;;;;;;;19.18;52.23;95573.78;5157647;27;19946;-28
2022/11/19 10:16:42;;;;;;;;;;;;;;;19.18;52.21;95548.28;5157538;27;19978;-28
2022/11/19 10:19:13;;;;;;;;;;;;;;;19.17;52.37;95541.31;5157499;27;20289;-29
2022/11/19 10:22:00;;;;;;;;;;;;;;;19.15;52.45;95535.59;5157491;27;20270;-28
2022/11/19 10:24:32;;;;;;;;;;;;;;;19.15;52.35;95538.34;5156929;27;19968;-29
2022/11/19 10:26:58;;;;;;;;;;;;;;;19.11;52.53;95540.59;5157446;27;19906;-29
2022/11/19 10:29:26;;;;;;;;;;;;;;;19.08;52.71;95544.31;5157373;27;19911;-29
2022/11/19 10:31:52;;;;;;;;;;;;;;;19.18;52.36;95531.81;5156855;27;19990;-28
2022/11/19 10:34:26;;;;;;;;;;;;;;;19.22;52.16;95504.81;5157212;27;20345;-29
2022/11/19 10:36:56;;;;;;;;;;;;;;;19.20;52.35;95512.81;5157166;27;19933;-29
2022/11/19 10:39:27;;;;;;;;;;;;;;;19.13;52.56;95518.84;5157119;27;19998;-30
2022/11/19 10:41:56;;;;;;;;;;;;;;;19.16;52.44;95513.09;5157070;27;19998;-30
2022/11/19 10:44:38;;;;;;;;;;;;;;;19.18;52.50;95513.31;5157091;27;19907;-28
2022/11/19 10:47:24;;;;;;;;;;;;;;;17.86;59.53;95497.19;5138352;27;19910;-32
2022/11/19 10:49:51;;;;;;;;;;;;;;;18.25;63.16;95489.00;5135497;27;19910;-30
2022/11/19 10:52:21;;;;;;;;;;;;;;;18.44;63.98;95486.47;5154766;27;19911;-30
2022/11/19 10:54:47;;;;;;;;;;;;;;;18.52;63.41;95471.00;5155054;27;19914;-30
2022/11/19 10:57:15;;;;;;;;;;;;;;;18.59;62.84;95467.03;5154688;27;19967;-29
2022/11/19 10:59:41;;;;;;;;;;;;;;;18.69;62.92;95471.00;5154694;27;19965;-30
2022/11/19 11:02:21;;;;;;;;;;;;;;;18.80;64.03;95462.72;5154335;27;19950;-29
2022/11/19 11:05:05;;;;;;;;;;;;;;;18.76;65.05;95451.25;5154765;27;19911;-30
2022/11/19 11:07:49;;;;;;;;;;;;;;;18.79;65.55;95442.00;5154555;27;19962;-33
2022/11/19 11:10:25;;;;;;;;;;;;;;;18.85;65.80;95431.75;5154133;27;19932;-30
2022/11/19 11:15:42;;;;;;;;;;;;;;;18.85;66.42;95418.00;5154638;27;19917;-29
2022/11/19 11:18:09;;;;;;;;;;;;;;;18.94;66.87;95428.72;5154374;27;19911;-30
2022/11/19 11:20:35;;;;;;;;;;;;;;;18.89;66.95;95429.50;5152993;27;19950;-29
2022/11/19 11:23:21;;;;;;;;;;;;;;;18.91;66.69;95423.50;5154098;27;20408;-30
2022/11/19 11:25:55;;;;;;;;;;;;;;;18.91;67.43;95413.25;5153425;27;19907;-31
2022/11/19 11:28:21;;;;;;;;;;;;;;;18.92;67.35;95401.00;5154090;27;19930;-30
2022/11/19 11:30:53;;;;;;;;;;;;;;;18.89;68.49;95413.00;5153887;27;19907;-30
2022/11/19 11:33:24;;;;;;;;;;;;;;;18.95;68.08;95404.72;5154039;27;19911;-32
2022/11/19 11:35:50;;;;;;;;;;;;;;;18.98;68.48;95385.25;5152705;27;20702;-30
2022/11/19 11:38:18;;;;;;;;;;;;;;;19.00;67.31;95379.25;5144379;27;19907;-30
2022/11/19 11:41:01;;;;;;;;;;;;;;;18.97;67.95;95372.75;5133307;27;20440;-30
2022/11/19 11:43:28;;;;;;;;;;;;;;;18.97;68.48;95350.78;5147743;27;19955;-30
2022/11/19 11:45:58;;;;;;;;;;;;;;;19.04;67.70;95341.22;5150427;27;19910;-30
2022/11/19 11:48:23;;;;;;;;;;;;;;;19.06;67.99;95343.47;5153732;27;19917;-31
2022/11/19 11:50:49;;;;;;;;;;;;;;;19.10;67.99;95363.94;5153851;27;19911;-30
2022/11/19 11:53:16;;;;;;;;;;;;;;;19.05;68.00;95358.47;5153874;27;19924;-30
2022/11/19 11:55:42;;;;;;;;;;;;;;;19.06;67.64;95332.50;5137628;27;19919;-29
2022/11/19 11:58:25;;;;;;;;;;;;;;;19.04;68.09;95313.75;5133110;27;19964;-29
2022/11/19 12:00:55;;;;;;;;;;;;;;;19.10;68.19;95300.00;5132634;27;19915;-31
2022/11/19 12:03:20;;;;;;;;;;;;;;;19.08;67.89;95319.00;5132999;27;19912;-30
2022/11/19 12:06:04;;;;;;;;;;;;;;;19.07;67.49;95312.75;5132826;27;19915;-31
2022/11/19 12:08:41;;;;;;;;;;;;;;;19.06;67.67;95311.25;5132797;27;19915;-29
2022/11/19 12:11:22;;;;;;;;;;;;;;;19.09;68.58;95320.47;5141450;27;19907;-29
2022/11/19 12:13:51;;;;;;;;;;;;;;;19.09;67.93;95323.22;5154259;27;19917;-29
2022/11/19 12:16:34;;;;;;;;;;;;;;;19.11;67.66;95331.72;5155286;27;19917;-29
2022/11/19 12:19:18;;;;;;;;;;;;;;;19.11;67.98;95334.47;5155576;27;19906;-31
2022/11/19 12:21:46;;;;;;;;;;;;;;;19.09;68.02;95337.72;5155756;27;19907;-33
2022/11/19 12:24:30;;;;;;;;;;;;;;;19.10;67.90;95330.97;5155256;27;19958;-31
2022/11/19 12:27:01;;;;;;;;;;;;;;;19.11;67.76;95334.47;5155472;27;19964;-31
2022/11/19 12:29:34;;;;;;;;;;;;;;;19.11;67.55;95326.97;5155258;27;19907;-31
2022/11/19 12:32:08;;;;;;;;;;;;;;;19.08;67.70;95313.50;5155383;27;19907;-31
2022/11/19 12:34:36;;;;;;;;;;;;;;;19.05;67.95;95320.00;5155453;27;19913;-33
2022/11/19 12:37:02;;;;;;;;;;;;;;;19.06;67.86;95318.75;5155202;27;19918;-31
2022/11/19 12:39:44;;;;;;;;;;;;;;;19.00;67.73;95314.06;5155244;27;20302;-31
2022/11/19 12:42:12;;;;;;;;;;;;;;;19.06;67.58;95305.75;5155348;27;19906;-32
2022/11/19 12:44:42;;;;;;;;;;;;;;;19.10;67.30;95316.47;5154575;27;19911;-29
2022/11/19 12:47:08;;;;;;;;;;;;;;;19.09;67.53;95337.72;5155139;27;19957;-30
2022/11/19 12:49:52;;;;;;;;;;;;;;;19.09;67.38;95332.22;5154748;27;19954;-30
2022/11/19 12:52:23;;;;;;;;;;;;;;;19.04;67.91;95340.53;5155501;27;19938;-30
2022/11/19 12:55:00;;;;;;;;;;;;;;;19.02;67.48;95350.00;5158178;27;20350;-29
2022/11/19 12:57:36;;;;;;;;;;;;;;;19.09;67.14;95353.47;5159150;27;19973;-29
2022/11/19 13:00:04;;;;;;;;;;;;;;;19.06;66.95;95355.22;5159131;27;19959;-29
2022/11/19 13:02:53;;;;;;;;;;;;;;;19.10;67.00;95335.72;5159404;27;20270;-30
2022/11/19 13:05:25;;;;;;;;;;;;;;;19.11;66.77;95323.47;5144876;27;19917;-33
2022/11/19 13:07:50;;;;;;;;;;;;;;;19.12;67.08;95322.22;5158860;27;19915;-30